createdAt,value
2023-02-20T00:00:19.907Z,14.13
2023-02-20T00:02:50.578Z,12.97
2023-02-20T00:05:20.269Z,15.60
2023-02-20T00:07:49.227Z,12.93
2023-02-20T00:10:18.538Z,14.87
2023-02-20T00:12:48.747Z,15.30
2023-02-20T00:15:20.616Z,21.47
2023-02-20T00:17:50.450Z,22.03
2023-02-20T00:20:22.559Z,17.33
2023-02-20T00:22:53.109Z,21.40
2023-02-20T00:25:23.127Z,23.30
2023-02-20T00:27:53.248Z,23.37
2023-02-20T00:30:25.626Z,19.63
2023-02-20T00:32:57.847Z,17.77
2023-02-20T00:35:28.547Z,14.13
2023-02-20T00:37:58.036Z,22.73
2023-02-20T00:40:27.977Z,27.07
2023-02-20T00:42:58.203Z,32.13
2023-02-20T00:45:26.994Z,31.37
2023-02-20T00:47:57.724Z,21.77
2023-02-20T00:50:27.491Z,27.93
2023-02-20T00:52:56.319Z,26.53
2023-02-20T00:55:25.134Z,23.27
2023-02-20T00:57:53.980Z,27.03
2023-02-20T01:00:30.472Z,22.17
2023-02-20T01:02:59.572Z,15.27
2023-02-20T01:05:28.414Z,13.07
2023-02-20T01:07:57.156Z,10.10
2023-02-20T01:10:25.932Z,12.20
2023-02-20T01:12:54.715Z,11.40
2023-02-20T01:15:23.516Z,11.73
2023-02-20T01:17:53.790Z,12.23
2023-02-20T01:20:22.771Z,9.67
2023-02-20T01:22:51.612Z,8.60
2023-02-20T01:25:20.390Z,8.10
2023-02-20T01:27:49.108Z,7.80
2023-02-20T01:30:18.781Z,7.47
2023-02-20T01:32:47.639Z,8.00
2023-02-20T01:35:18.793Z,7.40
2023-02-20T01:37:47.587Z,6.07
2023-02-20T01:40:19.058Z,7.60
2023-02-20T01:42:47.936Z,7.50
2023-02-20T01:45:33.222Z,7.97
2023-02-20T01:48:02.054Z,7.87
2023-02-20T01:50:38.241Z,6.90
2023-02-20T01:53:14.243Z,8.73
2023-02-20T01:55:50.861Z,6.17
2023-02-20T01:58:25.223Z,6.73
2023-02-20T02:00:55.497Z,7.90
2023-02-20T02:03:30.575Z,6.10
2023-02-20T02:06:06.056Z,6.97
2023-02-20T02:08:39.095Z,8.20
2023-02-20T02:11:11.366Z,7.23
2023-02-20T02:13:41.406Z,7.33
2023-02-20T02:16:24.924Z,6.73
2023-02-20T02:19:14.655Z,7.40
2023-02-20T02:22:38.234Z,10.13
2023-02-20T02:25:34.656Z,8.60
2023-02-20T02:28:51.205Z,9.93
2023-02-20T02:32:20.307Z,7.20
2023-02-20T02:35:27.289Z,8.40
2023-02-20T02:38:11.993Z,7.63
2023-02-20T02:40:48.646Z,8.97
2023-02-20T02:43:25.174Z,8.40
2023-02-20T02:45:57.078Z,8.00
2023-02-20T02:48:32.553Z,9.30
2023-02-20T02:51:12.278Z,10.30
2023-02-20T02:53:42.519Z,8.23
2023-02-20T02:56:24.885Z,9.80
2023-02-20T02:58:56.578Z,9.27
2023-02-20T03:01:59.527Z,7.67
2023-02-20T03:04:33.110Z,6.73
2023-02-20T03:07:09.246Z,8.20
2023-02-20T03:09:45.181Z,7.53
2023-02-20T03:12:16.157Z,8.63
2023-02-20T03:15:15.720Z,9.33
2023-02-20T03:17:53.056Z,8.70
2023-02-20T03:20:24.648Z,7.17
2023-02-20T03:22:58.571Z,11.77
2023-02-20T03:25:35.436Z,7.07
2023-02-20T03:28:12.477Z,7.67
2023-02-20T03:30:48.097Z,8.57
2023-02-20T03:33:46.486Z,8.40
2023-02-20T03:36:42.384Z,7.30
2023-02-20T03:39:36.595Z,8.73
2023-02-20T03:42:30.816Z,8.20
2023-02-20T03:45:09.619Z,7.77
2023-02-20T03:47:45.953Z,8.47
2023-02-20T03:50:17.647Z,9.93
2023-02-20T03:52:46.776Z,8.13
2023-02-20T03:55:16.377Z,7.70
2023-02-20T03:57:53.655Z,8.03
2023-02-20T04:00:28.599Z,8.37
2023-02-20T04:03:04.605Z,8.03
2023-02-20T04:05:45.055Z,6.50
2023-02-20T04:08:22.284Z,6.83
2023-02-20T04:10:59.467Z,7.87
2023-02-20T04:13:32.677Z,8.70
2023-02-20T04:16:03.872Z,9.00
2023-02-20T04:18:34.495Z,9.27
2023-02-20T04:21:16.708Z,9.43
2023-02-20T04:23:51.643Z,9.23
2023-02-20T04:26:24.547Z,11.40
2023-02-20T04:28:55.161Z,9.60
2023-02-20T04:31:25.280Z,9.90
2023-02-20T04:33:54.227Z,11.03
2023-02-20T04:36:26.006Z,11.30
2023-02-20T04:38:57.376Z,12.80
2023-02-20T04:41:30.510Z,12.10
2023-02-20T04:44:14.626Z,10.27
2023-02-20T04:46:43.584Z,11.50
2023-02-20T04:49:29.701Z,12.37
2023-02-20T04:52:02.012Z,13.20
2023-02-20T04:54:30.964Z,12.57
2023-02-20T04:57:00.067Z,13.30
2023-02-20T04:59:30.277Z,13.07
2023-02-20T05:02:01.176Z,13.93
2023-02-20T05:04:30.650Z,14.07
2023-02-20T05:07:04.530Z,13.60
2023-02-20T05:09:37.465Z,13.00
2023-02-20T05:12:09.956Z,14.30
2023-02-20T05:14:43.909Z,11.43
2023-02-20T05:17:20.728Z,12.73
2023-02-20T05:19:52.728Z,12.77
2023-02-20T05:22:25.074Z,11.23
2023-02-20T05:24:55.612Z,12.27
2023-02-20T05:27:26.281Z,12.97
2023-02-20T05:29:59.325Z,12.63
2023-02-20T05:32:32.055Z,12.30
2023-02-20T05:35:06.490Z,12.03
2023-02-20T05:37:36.059Z,12.13
2023-02-20T05:40:06.300Z,12.50
2023-02-20T05:42:37.906Z,11.67
2023-02-20T05:45:10.640Z,10.70
2023-02-20T05:47:40.248Z,11.53
2023-02-20T05:50:12.695Z,10.03
2023-02-20T05:52:42.613Z,11.23
2023-02-20T05:55:12.182Z,10.83
2023-02-20T05:57:41.856Z,11.10
2023-02-20T06:00:15.196Z,11.53
2023-02-20T06:02:43.950Z,10.60
2023-02-20T06:05:12.892Z,12.03
2023-02-20T06:07:45.655Z,10.00
2023-02-20T06:10:23.592Z,11.83
2023-02-20T06:12:55.378Z,10.93
2023-02-20T06:15:31.270Z,9.83
2023-02-20T06:18:02.022Z,10.53
2023-02-20T06:20:31.018Z,11.40
2023-02-20T06:23:05.203Z,13.43
2023-02-20T06:25:35.264Z,10.40
2023-02-20T06:28:04.332Z,10.03
2023-02-20T06:30:37.153Z,11.17
2023-02-20T06:33:15.709Z,9.10
2023-02-20T06:35:45.985Z,10.80
2023-02-20T06:38:15.900Z,9.67
2023-02-20T06:40:45.081Z,10.97
2023-02-20T06:43:14.225Z,11.57
2023-02-20T06:45:44.862Z,9.50
2023-02-20T06:48:15.335Z,10.70
2023-02-20T06:50:44.384Z,10.27
2023-02-20T06:53:13.267Z,8.87
2023-02-20T06:55:42.161Z,8.73
2023-02-20T06:58:11.424Z,8.87
2023-02-20T07:01:11.041Z,10.93
2023-02-20T07:03:39.896Z,9.07
2023-02-20T07:06:09.068Z,8.57
2023-02-20T07:08:37.694Z,7.57
2023-02-20T07:11:06.713Z,9.57
2023-02-20T07:13:36.257Z,7.80
2023-02-20T07:16:05.328Z,7.23
2023-02-20T07:18:35.600Z,7.73
2023-02-20T07:21:04.593Z,7.13
2023-02-20T07:23:33.618Z,10.07
2023-02-20T07:26:03.520Z,6.33
2023-02-20T07:28:34.602Z,6.57
2023-02-20T07:31:03.394Z,9.20
2023-02-20T07:33:39.620Z,6.80
2023-02-20T07:36:10.371Z,8.60
2023-02-20T07:38:39.630Z,7.40
2023-02-20T07:42:04.273Z,6.77
2023-02-20T07:44:59.036Z,7.00
2023-02-20T07:47:27.750Z,5.87
2023-02-20T07:49:57.982Z,8.10
2023-02-20T07:52:27.020Z,5.77
2023-02-20T07:54:55.763Z,5.80
2023-02-20T07:57:24.671Z,5.73
2023-02-20T07:59:53.439Z,5.87
2023-02-20T08:02:22.229Z,5.67
2023-02-20T08:04:51.253Z,4.73
2023-02-20T08:07:21.455Z,5.10
2023-02-20T08:09:50.238Z,7.17
2023-02-20T08:12:23.756Z,6.87
2023-02-20T08:14:52.883Z,6.90
2023-02-20T08:17:21.696Z,8.37
2023-02-20T08:19:50.541Z,6.80
2023-02-20T08:22:22.647Z,6.27
2023-02-20T08:24:54.547Z,5.87
2023-02-20T08:27:23.321Z,6.13
2023-02-20T08:29:52.122Z,7.60
2023-02-20T08:32:21.113Z,6.87
2023-02-20T08:34:49.993Z,7.20
2023-02-20T08:37:20.390Z,6.07
2023-02-20T08:39:49.079Z,6.93
2023-02-20T08:42:18.460Z,7.40
2023-02-20T08:44:47.344Z,7.33
2023-02-20T08:47:16.262Z,6.33
2023-02-20T08:49:47.700Z,7.17
2023-02-20T08:52:17.594Z,7.73
2023-02-20T08:54:49.881Z,5.40
2023-02-20T08:57:20.546Z,6.50
2023-02-20T08:59:49.345Z,6.27
2023-02-20T09:02:22.365Z,6.53
2023-02-20T09:04:51.184Z,7.27
2023-02-20T09:07:19.826Z,4.13
2023-02-20T09:09:51.574Z,5.33
2023-02-20T09:12:21.497Z,5.60
2023-02-20T09:14:50.218Z,4.27
2023-02-20T09:17:20.026Z,4.83
2023-02-20T09:19:48.908Z,6.00
2023-02-20T09:22:17.622Z,5.83
2023-02-20T09:24:50.696Z,5.03
2023-02-20T09:27:19.622Z,6.43
2023-02-20T09:29:48.991Z,4.53
2023-02-20T09:32:17.765Z,5.03
2023-02-20T09:34:46.486Z,8.93
2023-02-20T09:37:16.421Z,3.50
2023-02-20T09:39:45.167Z,4.77
2023-02-20T09:42:30.413Z,4.43
2023-02-20T09:45:11.061Z,3.43
2023-02-20T09:47:57.655Z,3.63
2023-02-20T09:50:38.386Z,3.37
2023-02-20T09:53:17.179Z,4.90
2023-02-20T09:55:46.990Z,4.60
2023-02-20T09:58:27.726Z,4.97
2023-02-20T10:01:02.181Z,4.07
2023-02-20T10:03:41.109Z,4.03
2023-02-20T10:06:18.861Z,5.40
2023-02-20T10:08:50.704Z,3.53
2023-02-20T10:11:41.096Z,5.83
2023-02-20T10:14:38.837Z,4.43
2023-02-20T10:17:22.625Z,4.70
2023-02-20T10:20:01.366Z,5.80
2023-02-20T10:22:35.240Z,3.90
2023-02-20T10:25:18.820Z,4.40
2023-02-20T10:28:05.011Z,2.70
2023-02-20T10:30:41.768Z,2.97
2023-02-20T10:33:25.715Z,4.10
2023-02-20T10:36:01.871Z,4.10
2023-02-20T10:38:47.520Z,2.63
2023-02-20T10:41:29.723Z,5.40
2023-02-20T10:44:06.906Z,3.67
2023-02-20T10:46:49.540Z,5.80
2023-02-20T10:49:35.250Z,1.97
2023-02-20T10:52:12.529Z,3.10
2023-02-20T10:54:52.541Z,1.63
2023-02-20T10:57:32.211Z,2.53
2023-02-20T11:00:09.148Z,3.77
2023-02-20T11:02:47.217Z,3.40
2023-02-20T11:05:22.134Z,4.27
2023-02-20T11:07:51.274Z,2.77
2023-02-20T11:10:20.831Z,3.50
2023-02-20T11:12:53.003Z,4.80
2023-02-20T11:15:26.194Z,1.90
2023-02-20T11:17:59.373Z,2.50
2023-02-20T11:20:49.376Z,2.10
2023-02-20T11:23:42.003Z,3.07
2023-02-20T11:26:34.251Z,3.27
2023-02-20T11:29:12.567Z,4.13
2023-02-20T11:31:42.338Z,3.33
2023-02-20T11:34:21.532Z,2.30
2023-02-20T11:36:54.332Z,2.20
2023-02-20T11:39:28.090Z,1.87
2023-02-20T11:42:16.780Z,1.47
2023-02-20T11:44:45.955Z,3.57
2023-02-20T11:47:28.016Z,3.53
2023-02-20T11:50:20.630Z,2.77
2023-02-20T11:53:05.490Z,1.93
2023-02-20T11:55:35.778Z,3.13
2023-02-20T11:58:04.898Z,3.23
2023-02-20T12:00:48.308Z,2.93
2023-02-20T12:03:24.185Z,2.63
2023-02-20T12:05:54.442Z,1.80
2023-02-20T12:08:45.164Z,2.07
2023-02-20T12:11:17.773Z,2.13
2023-02-20T12:13:49.538Z,2.90
2023-02-20T12:16:38.860Z,2.07
2023-02-20T12:19:19.967Z,2.20
2023-02-20T12:22:05.849Z,1.50
2023-02-20T12:24:58.641Z,1.27
2023-02-20T12:27:55.031Z,3.83
2023-02-20T12:30:40.992Z,2.50
2023-02-20T12:33:48.906Z,1.23
2023-02-20T12:36:31.013Z,3.20
2023-02-20T12:39:09.265Z,3.00
2023-02-20T12:42:05.455Z,2.80
2023-02-20T12:45:19.319Z,0.90
2023-02-20T12:47:53.602Z,2.50
2023-02-20T12:50:58.659Z,1.40
2023-02-20T12:53:59.563Z,1.10
2023-02-20T12:56:55.060Z,3.10
2023-02-20T12:59:36.277Z,2.00
2023-02-20T13:02:23.593Z,1.43
2023-02-20T13:05:02.938Z,1.27
2023-02-20T13:07:38.547Z,1.90
2023-02-20T13:10:16.830Z,3.37
2023-02-20T13:12:47.004Z,3.17
2023-02-20T13:15:37.575Z,2.50
2023-02-20T13:18:17.618Z,3.50
2023-02-20T13:20:51.917Z,1.97
2023-02-20T13:23:38.804Z,1.87
2023-02-20T13:26:48.272Z,2.90
2023-02-20T13:29:23.061Z,1.93
2023-02-20T13:31:54.110Z,6.00
2023-02-20T13:34:37.976Z,3.17
2023-02-20T13:37:27.472Z,3.77
2023-02-20T13:39:56.137Z,2.47
2023-02-20T13:42:34.821Z,1.70
2023-02-20T13:45:39.420Z,1.57
2023-02-20T13:48:43.643Z,1.20
2023-02-20T13:51:39.774Z,4.60
2023-02-20T13:54:35.394Z,3.80
2023-02-20T13:57:19.218Z,2.53
2023-02-20T13:59:52.355Z,2.50
2023-02-20T14:02:30.284Z,2.40
2023-02-20T14:05:03.276Z,1.53
2023-02-20T14:07:39.554Z,2.27
2023-02-20T14:10:17.705Z,2.43
2023-02-20T14:12:54.111Z,3.73
2023-02-20T14:15:24.757Z,2.23
2023-02-20T14:17:57.872Z,3.70
2023-02-20T14:20:36.128Z,2.17
2023-02-20T14:23:11.609Z,1.40
2023-02-20T14:25:52.079Z,3.90
2023-02-20T14:28:30.506Z,1.00
2023-02-20T14:31:20.218Z,4.07
2023-02-20T14:33:52.488Z,4.13
2023-02-20T14:36:58.964Z,2.77
2023-02-20T14:39:50.538Z,3.93
2023-02-20T14:42:24.642Z,2.47
2023-02-20T14:45:01.238Z,2.10
2023-02-20T14:47:31.784Z,2.87
2023-02-20T14:50:21.386Z,4.57
2023-02-20T14:53:04.996Z,2.30
2023-02-20T14:55:33.671Z,1.70
2023-02-20T14:58:08.352Z,2.13
2023-02-20T15:00:39.840Z,3.17
2023-02-20T15:03:28.031Z,1.57
2023-02-20T15:06:04.506Z,1.73
2023-02-20T15:08:36.200Z,2.97
2023-02-20T15:11:10.601Z,2.23
2023-02-20T15:13:45.007Z,2.40
2023-02-20T15:16:24.044Z,2.80
2023-02-20T15:18:53.661Z,1.90
2023-02-20T15:21:40.778Z,3.67
2023-02-20T15:24:39.983Z,2.03
2023-02-20T15:27:16.460Z,3.10
2023-02-20T15:29:47.654Z,5.60
2023-02-20T15:32:23.096Z,4.23
2023-02-20T15:34:55.268Z,3.57
2023-02-20T15:37:38.641Z,2.13
2023-02-20T15:40:25.635Z,5.10
2023-02-20T15:42:57.882Z,1.53
2023-02-20T15:45:28.689Z,3.83
2023-02-20T15:47:58.698Z,1.47
2023-02-20T15:50:28.088Z,1.90
2023-02-20T15:52:58.903Z,2.37
2023-02-20T15:55:31.111Z,2.13
2023-02-20T15:58:02.976Z,2.57
2023-02-20T16:00:35.018Z,3.27
2023-02-20T16:03:03.936Z,5.80
2023-02-20T16:05:32.637Z,6.77
2023-02-20T16:08:02.799Z,3.43
2023-02-20T16:10:31.551Z,4.77
2023-02-20T16:13:03.034Z,5.57
2023-02-20T16:15:31.792Z,4.83
2023-02-20T16:18:01.620Z,6.30
2023-02-20T16:20:31.863Z,3.43
2023-02-20T16:23:04.757Z,2.87
2023-02-20T16:25:33.676Z,3.30
2023-02-20T16:28:08.540Z,3.83
2023-02-20T16:30:45.572Z,3.87
2023-02-20T16:33:17.501Z,4.30
2023-02-20T16:35:47.424Z,5.10
2023-02-20T16:38:18.687Z,6.17
2023-02-20T16:40:51.146Z,3.63
2023-02-20T16:43:20.111Z,2.73
2023-02-20T16:45:51.093Z,2.67
2023-02-20T16:48:22.737Z,4.37
2023-02-20T16:50:54.474Z,4.90
2023-02-20T16:53:31.845Z,3.23
2023-02-20T16:56:00.551Z,3.07
2023-02-20T16:58:29.240Z,3.03
2023-02-20T17:00:58.958Z,3.53
2023-02-20T17:03:27.961Z,2.93
2023-02-20T17:05:59.832Z,3.83
2023-02-20T17:08:30.338Z,2.53
2023-02-20T17:10:59.218Z,3.23
2023-02-20T17:13:27.961Z,3.60
2023-02-20T17:15:56.914Z,4.70
2023-02-20T17:18:25.656Z,4.03
2023-02-20T17:21:19.629Z,2.43
2023-02-20T17:23:49.673Z,2.47
2023-02-20T17:26:18.562Z,2.40
2023-02-20T17:28:47.500Z,3.67
2023-02-20T17:31:16.387Z,3.50
2023-02-20T17:33:45.312Z,2.83
2023-02-20T17:36:14.431Z,1.63
2023-02-20T17:38:44.114Z,3.57
2023-02-20T17:41:14.455Z,3.40
2023-02-20T17:43:43.460Z,4.37
2023-02-20T17:46:14.363Z,1.83
2023-02-20T17:48:45.757Z,2.20
2023-02-20T17:51:21.627Z,4.17
2023-02-20T17:53:50.385Z,4.03
2023-02-20T17:56:32.245Z,3.10
2023-02-20T17:59:01.199Z,4.43
2023-02-20T18:01:29.992Z,4.50
2023-02-20T18:03:58.763Z,5.07
2023-02-20T18:06:27.579Z,3.30
2023-02-20T18:08:56.570Z,2.77
2023-02-20T18:11:28.035Z,2.60
2023-02-20T18:13:58.883Z,3.30
2023-02-20T18:16:29.978Z,3.23
2023-02-20T18:18:59.284Z,2.90
2023-02-20T18:21:50.383Z,2.40
2023-02-20T18:24:25.446Z,2.73
2023-02-20T18:26:56.659Z,3.03
2023-02-20T18:29:27.279Z,2.67
2023-02-20T18:31:58.243Z,3.77
2023-02-20T18:34:28.985Z,3.13
2023-02-20T18:36:57.939Z,5.87
2023-02-20T18:39:27.367Z,11.17
2023-02-20T18:41:58.607Z,11.27
2023-02-20T18:44:29.777Z,13.57
2023-02-20T18:47:02.048Z,9.90
2023-02-20T18:49:30.806Z,15.90
2023-02-20T18:51:59.878Z,10.80
2023-02-20T18:54:32.981Z,8.03
2023-02-20T18:57:05.022Z,8.57
2023-02-20T18:59:33.762Z,9.73
2023-02-20T19:02:06.133Z,8.10
2023-02-20T19:04:35.118Z,6.50
2023-02-20T19:07:07.433Z,6.37
2023-02-20T19:09:50.632Z,6.57
2023-02-20T19:12:21.134Z,6.67
2023-02-20T19:14:50.150Z,7.07
2023-02-20T19:17:18.957Z,5.70
2023-02-20T19:19:48.871Z,5.30
2023-02-20T19:22:17.547Z,7.90
2023-02-20T19:24:46.884Z,7.30
2023-02-20T19:27:15.947Z,4.17
2023-02-20T19:29:46.996Z,5.87
2023-02-20T19:32:18.123Z,4.57
2023-02-20T19:34:47.256Z,5.87
2023-02-20T19:37:16.896Z,7.87
2023-02-20T19:39:45.697Z,4.90
2023-02-20T19:42:19.484Z,3.63
2023-02-20T19:44:49.572Z,5.13
2023-02-20T19:47:18.582Z,5.80
2023-02-20T19:49:48.205Z,3.03
2023-02-20T19:52:17.055Z,5.40
2023-02-20T19:54:47.816Z,5.17
2023-02-20T19:57:17.043Z,4.27
2023-02-20T19:59:46.058Z,3.00
2023-02-20T20:02:16.204Z,5.53
2023-02-20T20:04:45.775Z,7.27
2023-02-20T20:07:14.458Z,4.43
2023-02-20T20:09:46.174Z,4.77
2023-02-20T20:12:32.331Z,4.83
2023-02-20T20:15:01.092Z,4.17
2023-02-20T20:17:31.158Z,5.80
2023-02-20T20:20:00.868Z,6.03
2023-02-20T20:22:31.811Z,3.97
2023-02-20T20:25:00.673Z,4.20
2023-02-20T20:27:29.374Z,8.20
2023-02-20T20:29:58.526Z,2.90
2023-02-20T20:32:27.180Z,6.83
2023-02-20T20:34:57.274Z,4.53
2023-02-20T20:37:28.635Z,3.87
2023-02-20T20:39:59.692Z,4.67
2023-02-20T20:42:30.038Z,4.60
2023-02-20T20:45:00.526Z,5.50
2023-02-20T20:47:31.898Z,4.33
2023-02-20T20:50:02.098Z,3.70
2023-02-20T20:52:31.373Z,5.70
2023-02-20T20:55:02.227Z,3.13
2023-02-20T20:57:35.941Z,4.93
2023-02-20T21:00:08.046Z,4.50
2023-02-20T21:02:36.851Z,3.20
2023-02-20T21:05:10.515Z,6.63
2023-02-20T21:07:40.168Z,5.20
2023-02-20T21:10:10.680Z,5.20
2023-02-20T21:12:40.760Z,4.63
2023-02-20T21:15:12.459Z,4.60
2023-02-20T21:17:43.553Z,4.57
2023-02-20T21:20:19.081Z,5.43
2023-02-20T21:22:49.008Z,4.13
2023-02-20T21:25:19.153Z,6.43
2023-02-20T21:27:48.001Z,6.93
2023-02-20T21:30:17.167Z,5.13
2023-02-20T21:32:46.258Z,5.37
2023-02-20T21:35:18.895Z,5.90
2023-02-20T21:37:47.882Z,7.03
2023-02-20T21:40:21.116Z,6.87
2023-02-20T21:43:07.244Z,5.30
2023-02-20T21:45:36.582Z,6.53
2023-02-20T21:48:06.387Z,6.97
2023-02-20T21:50:36.565Z,5.67
2023-02-20T21:53:05.711Z,5.83
2023-02-20T21:55:34.746Z,5.37
2023-02-20T21:58:08.389Z,5.20
2023-02-20T22:00:36.023Z,5.47
2023-02-20T22:03:04.608Z,6.10
2023-02-20T22:05:32.196Z,5.23
2023-02-20T22:08:19.884Z,4.93
2023-02-20T22:11:05.976Z,6.27
2023-02-20T22:13:52.064Z,5.47
2023-02-20T22:16:39.275Z,6.30
2023-02-20T22:19:25.613Z,6.97
2023-02-20T22:22:11.380Z,6.43
2023-02-20T22:24:58.905Z,7.87
2023-02-20T22:27:45.301Z,6.93
2023-02-20T22:30:32.313Z,6.43
2023-02-20T22:33:18.646Z,6.37
2023-02-20T22:36:05.024Z,6.47
2023-02-20T22:38:50.984Z,6.63
2023-02-20T22:41:39.786Z,4.77
2023-02-20T22:44:26.201Z,4.40
2023-02-20T22:47:12.613Z,4.10
2023-02-20T22:49:58.617Z,5.27
2023-02-20T22:52:45.026Z,4.50
2023-02-20T22:55:31.361Z,4.77
2023-02-20T22:58:19.119Z,4.10
2023-02-20T23:01:05.631Z,5.10
2023-02-20T23:03:52.007Z,4.53
2023-02-20T23:06:39.238Z,4.47
2023-02-20T23:09:27.145Z,5.27
2023-02-20T23:12:14.075Z,4.60
2023-02-20T23:15:01.677Z,5.43
2023-02-20T23:17:48.144Z,4.30
2023-02-20T23:20:37.430Z,5.90
2023-02-20T23:23:24.624Z,4.23
2023-02-20T23:26:10.603Z,5.77
2023-02-20T23:28:57.466Z,5.00
2023-02-20T23:31:53.402Z,4.23
2023-02-20T23:34:39.817Z,6.60
2023-02-20T23:37:26.087Z,4.80
2023-02-20T23:40:12.595Z,4.83
2023-02-20T23:42:58.452Z,6.00
2023-02-20T23:45:44.970Z,5.17
2023-02-20T23:48:33.118Z,6.73
2023-02-20T23:51:19.423Z,4.90
2023-02-20T23:54:05.469Z,5.50
2023-02-20T23:56:51.374Z,7.47
2023-02-20T23:59:37.816Z,5.40
